Terminal Aerodrome Forecast
Issued by NWS Lake Charles, LA

Home | Current Version | Previous Version | Text Only | Print | Product List | Glossary On
Versions: 1 2 3 4 5 6 7 8 9 10 11 12 13 14 15 16 17
000
FTUS44 KLCH 290520
TAFLFT
TAF
KLFT 290520Z 2906/3006 36010KT P6SM VCSH FEW025 OVC250
     FM290900 VRB05KT P6SM BKN070
     FM291500 22008KT P6SM VCTS SCT025CB
     FM300200 VRB03KT P6SM BKN250=

USA.gov is the U.S. government's official web portal to all federal, state and local government web resources and services.